Terminal Aerodrome Forecast
Issued by NWS

Home | Current Version | Previous Version | Text Only | Print | Product List | Glossary On
Versions: 1 2 3 4 5 6 7 8 9 10 11 12 13 14 15 16 17 18 19
000
FTUS42 KGSP 211910 AAC
TAFGMU
TAF AMD
KGMU 211910Z 2119/2218 07005KT P6SM SCT022 OVC035
      TEMPO 2119/2122 BKN022 OVC035
     FM212200 06005KT P6SM OVC025
     FM220300 05006KT P6SM -RA OVC016
     FM220600 05008KT P6SM -RA OVC007
     FM220900 04009KT 5SM -RADZ BR OVC006
     FM221500 05008KT P6SM OVC007=

USA.gov is the U.S. government's official web portal to all federal, state and local government web resources and services.